Desert Hot Springs, CA (92241)

8:32 PM PDT on July 28, 2016 (GMT -0700)
KCASKYVA3 | | Change Station

Elev 1056 ft 33.89 °N, 116.37 °W | Updated 2 minutes ago

Clear
Clear
99.4 °F
Feels Like 97 °F
N
16.0
Wind Variable Wind from NW
Gusts 16.0 mph

Today
High -- | Low -- °F
--% Chance of Precip.
Yesterday
High -- | Low -- °F
Precip. -- in
Pressure 29.67 in
Visibility 10.0 miles
Clouds Clear
Heat Index 97 °F
Dew Point 51 °F
Humidity 20%
Rainfall 0.00 in
Snow Depth Not available.
5:54 AM 7:49 PM
Waning Crescent, 26% visible
METAR KPSP 290253Z 32012KT 10SM CLR 42/10 A2968 RMK AO2 SLP046 T04220100 55001
Pressure 29.67 in
Visibility 10.0 miles
Clouds Clear
Heat Index 97 °F
Dew Point 51 °F
Humidity 20%
Rainfall 0.00 in
Snow Depth Not available.
5:54 AM 7:49 PM
Waning Crescent, 26% visible
METAR KPSP 290253Z 32012KT 10SM CLR 42/10 A2968 RMK AO2 SLP046 T04220100 55001

10-Day Weather Forecast

Almanac

Astronomy

Jul. 28, 2016 Rise Set
Actual Time
Civil Twilight
Nautical Twilight
Astronomical Twilight
Moon
Length of Visible Light
Length of Day
Tomorrow will be .
, % of the Moon is Illuminated

Today's Extremes

State Highs State Lows

Community

WunderPhotos

Upload Photos

1,928,286 photos uploaded!

WunderBlog® & News

Nearby

Air Quality

  Air Quality AQ Index Pollutant
Not available.

Snow Depth

Station Depth Elevation

Earthquake Activity

City Distance Mag. Time & Date
Minimum magnitude displayed is 2.5.

Coastal Water Temperatures

Place Temperature

Stations

Nearby Weather Stations

Station Location Temp. Windchill Dew Point Humidity Wind Precip. Elev Updated Type
                   

Watches & Warnings

There are currently no watches in effect.